Main page
METAR-TAF:

METAR-TAF

Airports :

Gran Canaria Airport

Gran Canaria, Spain

latitude: 27-56N, longitude: 015-23W, elevation: 23 m

Current weather observation

The report was made 31 minutes ago, at 17:30 UTC
Wind 12 kt from the North/Northeast
Temperature 18°C
Humidity 64%
Pressure 1023 hPa
Visibility 10 km or more
Few clouds at a height of 3500 ft

METAR: GCLP 271730Z 02012KT 9999 FEW035 18/11 Q1023 NOSIG

Time: 18:01 (18:01 UTC)

Forecast

The report was made 4 hours and 1 minutes ago, at 14:00 UTC
Forecast valid from 27 at 15 UTC to 28 at 15 UTC
Wind 13 kt from the North
Visibility 10 km or more
Scattered clouds at a height of 3500 ft
Temporary
from 27 at 15 UTC to 27 at 18 UTC
Wind 9 kt from the East/Northeast

TAF: GCLP 271400Z 2715/2815 36013KT 9999 SCT035 TX21/2815Z TN15/2806Z TEMPO 2715/2718 06009KT

Weather observations and forecasts of more than 4000 airports (METAR and TAF reports).

The available stations are represented by yellow and red dots on the map.

Hover mouse over dot to see the name of the station.

Then click to see weather observations and forecasts.

To change the map : click on the green buttons with a black cross to zoom in, on the green button with a dash to zoom out, or on the green arrows for adjacent maps.


METAR-TAF: